createdAt,value
2018-06-17T00:03:52.257Z,12.10
2018-06-17T00:07:56.573Z,12.00
2018-06-17T00:12:00.801Z,12.00
2018-06-17T00:16:06.765Z,12.00
2018-06-17T00:20:10.959Z,12.00
2018-06-17T00:24:16.993Z,12.00
2018-06-17T00:28:27.755Z,11.90
2018-06-17T00:32:32.622Z,11.90
2018-06-17T00:40:42.742Z,11.80
2018-06-17T00:44:47.705Z,11.80
2018-06-17T00:48:54.140Z,11.80
2018-06-17T00:53:04.974Z,11.70
2018-06-17T00:57:49.910Z,11.60
2018-06-17T01:01:54.599Z,11.60
2018-06-17T01:05:59.492Z,11.60
2018-06-17T01:10:04.433Z,11.60
2018-06-17T01:14:09.121Z,11.60
2018-06-17T01:18:13.828Z,11.50
2018-06-17T01:22:19.461Z,11.40
2018-06-17T01:26:24.132Z,11.40
2018-06-17T01:30:29.034Z,11.30
2018-06-17T01:34:33.632Z,11.30
2018-06-17T01:38:38.844Z,11.40
2018-06-17T01:42:43.589Z,11.40
2018-06-17T01:46:48.398Z,11.40
2018-06-17T01:50:52.989Z,11.40
2018-06-17T01:54:58.258Z,11.40
2018-06-17T01:59:02.952Z,11.20
2018-06-17T02:03:13.045Z,11.20
2018-06-17T02:07:23.106Z,11.20
2018-06-17T02:12:31.240Z,11.20
2018-06-17T02:16:36.036Z,11.10
2018-06-17T02:20:40.813Z,11.10
2018-06-17T02:24:45.186Z,11.20
2018-06-17T02:28:49.554Z,11.10
2018-06-17T02:32:54.106Z,11.00
2018-06-17T02:36:59.026Z,11.10
2018-06-17T02:41:03.749Z,11.00
2018-06-17T02:45:13.611Z,10.90
2018-06-17T02:49:23.969Z,11.00
2018-06-17T02:53:33.795Z,11.00
2018-06-17T02:57:38.948Z,10.90
2018-06-17T03:01:43.777Z,10.90
2018-06-17T03:05:49.043Z,10.90
2018-06-17T03:09:53.905Z,10.90
2018-06-17T03:13:59.898Z,10.90
2018-06-17T03:18:04.985Z,10.90
2018-06-17T03:22:10.309Z,10.90
2018-06-17T03:26:19.810Z,11.00
2018-06-17T03:34:34.541Z,10.90
2018-06-17T03:38:40.388Z,10.90
2018-06-17T03:42:45.406Z,10.90
2018-06-17T03:46:50.640Z,11.00
2018-06-17T03:50:55.445Z,11.10
2018-06-17T03:55:00.242Z,11.20
2018-06-17T03:59:05.463Z,11.10
2018-06-17T04:03:10.658Z,11.10
2018-06-17T04:07:15.210Z,11.20
2018-06-17T04:11:19.962Z,11.30
2018-06-17T04:15:25.168Z,11.40
2018-06-17T04:19:29.881Z,11.40
2018-06-17T04:23:35.244Z,11.70
2018-06-17T04:27:40.105Z,11.80
2018-06-17T04:31:45.369Z,11.90
2018-06-17T04:35:49.728Z,12.20
2018-06-17T04:39:54.508Z,12.50
2018-06-17T04:43:59.397Z,12.80
2018-06-17T04:48:04.295Z,13.10
2018-06-17T04:52:08.782Z,13.20
2018-06-17T04:56:13.747Z,13.50
2018-06-17T05:00:18.380Z,13.70
2018-06-17T05:04:22.970Z,13.90
2018-06-17T05:08:27.308Z,14.00
2018-06-17T05:12:31.712Z,14.30
2018-06-17T05:16:38.024Z,14.30
2018-06-17T05:20:42.796Z,14.50
2018-06-17T05:24:47.722Z,14.90
2018-06-17T05:28:52.961Z,15.00
2018-06-17T05:32:57.871Z,15.20
2018-06-17T05:37:02.954Z,15.50
2018-06-17T05:41:07.783Z,15.70
2018-06-17T05:49:16.390Z,16.10
2018-06-17T05:57:24.761Z,16.50
2018-06-17T06:01:29.079Z,16.80
2018-06-17T06:05:33.896Z,16.90
2018-06-17T06:09:38.741Z,17.10
2018-06-17T06:13:43.489Z,17.40
2018-06-17T06:17:47.908Z,17.60
2018-06-17T06:21:52.720Z,17.90
2018-06-17T06:25:57.281Z,18.10
2018-06-17T06:30:01.700Z,18.40
2018-06-17T06:34:06.455Z,18.70
2018-06-17T06:38:11.336Z,19.10
2018-06-17T06:42:15.592Z,19.30
2018-06-17T06:54:48.905Z,20.60
2018-06-17T06:58:53.160Z,20.60
2018-06-17T07:03:08.130Z,20.90
2018-06-17T07:07:23.394Z,21.50
2018-06-17T07:11:27.619Z,21.70
2018-06-17T07:15:42.815Z,22.10
2018-06-17T07:19:47.020Z,22.30
2018-06-17T07:23:51.275Z,22.10
2018-06-17T07:29:04.171Z,22.20
2018-06-17T07:33:08.557Z,22.50
2018-06-17T07:41:16.464Z,22.70
2018-06-17T07:45:20.830Z,22.60
2018-06-17T07:49:37.280Z,22.60
2018-06-17T07:53:41.538Z,23.10
2018-06-17T07:57:46.016Z,23.40
2018-06-17T08:01:50.469Z,23.50
2018-06-17T08:05:55.200Z,23.80
2018-06-17T08:14:03.544Z,24.20
2018-06-17T08:18:07.839Z,24.00
2018-06-17T08:22:12.115Z,23.70
2018-06-17T08:26:16.354Z,24.00
2018-06-17T08:30:21.843Z,24.00
2018-06-17T08:34:26.092Z,23.80
2018-06-17T08:38:30.471Z,23.30
2018-06-17T08:42:34.756Z,23.40
2018-06-17T08:46:39.020Z,23.30
2018-06-17T08:50:43.246Z,23.50
2018-06-17T08:54:47.571Z,23.90
2018-06-17T08:58:51.766Z,24.70
2018-06-17T09:02:56.014Z,25.10
2018-06-17T09:07:00.253Z,25.40
2018-06-17T09:11:04.656Z,26.10
2018-06-17T09:15:08.905Z,26.70
2018-06-17T09:19:13.234Z,27.70
2018-06-17T09:23:17.460Z,28.60
2018-06-17T09:27:21.665Z,28.40
2018-06-17T09:31:26.271Z,28.50
2018-06-17T09:35:30.684Z,29.10
2018-06-17T09:39:34.903Z,29.60
2018-06-17T09:43:39.276Z,30.00
2018-06-17T09:47:43.619Z,29.80
2018-06-17T09:51:47.917Z,30.10
2018-06-17T09:55:52.152Z,30.70
2018-06-17T09:59:56.509Z,30.40
2018-06-17T10:04:00.710Z,30.30
2018-06-17T10:08:04.234Z,29.60
2018-06-17T10:12:08.475Z,31.20
2018-06-17T10:16:16.254Z,31.00
2018-06-17T10:20:20.731Z,31.90
2018-06-17T10:28:29.577Z,31.30
2018-06-17T10:32:33.927Z,31.40
2018-06-17T10:40:42.244Z,33.40
2018-06-17T10:44:49.575Z,32.30
2018-06-17T10:48:53.850Z,33.20
2018-06-17T10:52:58.430Z,33.20
2018-06-17T10:57:03.321Z,32.10
2018-06-17T11:01:08.200Z,31.90
2018-06-17T11:05:12.778Z,32.70
2018-06-17T11:09:17.356Z,33.00
2018-06-17T11:13:21.630Z,32.10
2018-06-17T11:17:26.199Z,32.40
2018-06-17T11:21:30.499Z,33.00
2018-06-17T11:25:35.018Z,33.60
2018-06-17T11:29:39.753Z,34.30
2018-06-17T11:33:44.061Z,31.50
2018-06-17T11:37:48.518Z,30.10
2018-06-17T11:41:53.077Z,30.70
2018-06-17T11:45:57.588Z,30.90
2018-06-17T11:50:02.098Z,30.30
2018-06-17T11:54:06.583Z,32.40
2018-06-17T11:58:11.083Z,32.20
2018-06-17T12:02:15.647Z,31.80
2018-06-17T12:06:21.171Z,31.60
2018-06-17T12:10:25.602Z,31.50
2018-06-17T12:14:30.007Z,32.90
2018-06-17T12:18:34.504Z,32.60
2018-06-17T12:22:38.849Z,31.10
2018-06-17T12:26:43.068Z,30.10
2018-06-17T12:30:47.513Z,28.30
2018-06-17T12:34:51.736Z,28.10
2018-06-17T12:38:57.288Z,27.40
2018-06-17T12:43:01.655Z,26.60
2018-06-17T12:47:06.422Z,26.50
2018-06-17T12:51:10.744Z,26.30
2018-06-17T12:55:15.213Z,26.10
2018-06-17T12:59:19.633Z,26.00
2018-06-17T13:03:24.091Z,25.80
2018-06-17T13:07:28.562Z,25.60
2018-06-17T13:11:33.065Z,25.30
2018-06-17T13:15:37.816Z,25.40
2018-06-17T13:19:42.033Z,25.20
2018-06-17T13:23:46.651Z,25.30
2018-06-17T13:27:51.568Z,25.20
2018-06-17T13:31:56.130Z,25.60
2018-06-17T13:36:00.533Z,25.80
2018-06-17T13:40:05.709Z,25.80
2018-06-17T13:44:10.764Z,26.10
2018-06-17T13:48:15.294Z,26.50
2018-06-17T13:52:19.627Z,27.00
2018-06-17T13:56:24.245Z,27.50
2018-06-17T14:00:28.684Z,28.00
2018-06-17T14:04:33.393Z,28.40
2018-06-17T14:08:38.463Z,28.80
2018-06-17T14:12:42.799Z,28.50
2018-06-17T14:16:47.131Z,28.30
2018-06-17T14:20:51.649Z,27.90
2018-06-17T14:24:56.386Z,27.60
2018-06-17T14:29:00.867Z,27.40
2018-06-17T14:33:05.291Z,27.10
2018-06-17T14:37:09.800Z,26.70
2018-06-17T14:41:18.317Z,26.70
2018-06-17T14:45:27.716Z,26.50
2018-06-17T14:49:37.549Z,25.90
2018-06-17T14:53:42.018Z,25.50
2018-06-17T14:57:46.534Z,25.20
2018-06-17T15:01:50.885Z,25.00
2018-06-17T15:05:55.343Z,24.70
2018-06-17T15:09:59.702Z,24.40
2018-06-17T15:14:04.221Z,24.10
2018-06-17T15:18:08.753Z,24.00
2018-06-17T15:22:13.188Z,23.50
2018-06-17T15:26:17.458Z,23.20
2018-06-17T15:30:21.788Z,23.30
2018-06-17T15:34:31.319Z,23.20
2018-06-17T15:38:40.856Z,23.20
2018-06-17T15:42:45.409Z,23.20
2018-06-17T15:46:49.829Z,23.10
2018-06-17T15:50:54.376Z,23.00
2018-06-17T15:54:58.758Z,23.10
2018-06-17T15:59:03.231Z,22.80
2018-06-17T16:03:07.640Z,22.80
2018-06-17T16:07:12.264Z,23.10
2018-06-17T16:11:16.729Z,23.00
2018-06-17T16:15:26.540Z,23.10
2018-06-17T16:19:36.467Z,22.90
2018-06-17T16:23:40.782Z,23.00
2018-06-17T16:27:45.353Z,23.00
2018-06-17T16:31:49.730Z,22.90
2018-06-17T16:35:53.989Z,23.20
2018-06-17T16:39:58.602Z,23.40
2018-06-17T16:44:03.093Z,23.40
2018-06-17T16:48:07.562Z,23.40
2018-06-17T16:52:17.492Z,23.70
2018-06-17T16:56:27.360Z,23.50
2018-06-17T17:00:31.754Z,23.40
2018-06-17T17:04:36.336Z,23.20
2018-06-17T17:08:41.038Z,23.30
2018-06-17T17:12:45.513Z,23.20
2018-06-17T17:20:54.228Z,23.10
2018-06-17T17:24:58.502Z,23.10
2018-06-17T17:29:02.713Z,23.10
2018-06-17T17:33:12.161Z,23.10
2018-06-17T17:37:21.742Z,22.90
2018-06-17T17:41:25.941Z,22.60
2018-06-17T17:45:35.377Z,22.70
2018-06-17T17:49:39.607Z,22.40
2018-06-17T17:53:43.852Z,22.30
2018-06-17T17:57:48.151Z,22.10
2018-06-17T18:01:52.406Z,22.00
2018-06-17T18:05:56.656Z,21.80
2018-06-17T18:10:01.117Z,21.50
2018-06-17T18:14:05.434Z,21.30
2018-06-17T18:18:10.502Z,21.20
2018-06-17T18:22:15.736Z,21.10
2018-06-17T18:26:25.493Z,21.10
2018-06-17T18:30:42.228Z,20.90
2018-06-17T18:34:51.650Z,20.50
2018-06-17T18:38:55.937Z,20.30
2018-06-17T18:43:00.658Z,20.00
2018-06-17T18:47:05.060Z,19.90
2018-06-17T18:51:09.839Z,19.80
2018-06-17T18:55:14.385Z,19.70
2018-06-17T18:59:20.048Z,19.60
2018-06-17T19:03:24.373Z,19.60
2018-06-17T19:07:28.861Z,19.30
2018-06-17T19:11:38.565Z,19.20
2018-06-17T19:15:48.127Z,19.00
2018-06-17T19:23:56.344Z,19.10
2018-06-17T19:28:01.188Z,19.10
2018-06-17T19:32:05.673Z,18.90
2018-06-17T19:36:10.170Z,18.70
2018-06-17T19:40:14.628Z,18.60
2018-06-17T19:44:18.976Z,18.50
2018-06-17T19:48:23.275Z,18.40
2018-06-17T19:52:32.836Z,18.30
2018-06-17T19:56:42.387Z,18.30
2018-06-17T20:00:48.517Z,18.10
2018-06-17T20:08:56.537Z,17.80
2018-06-17T20:13:01.245Z,17.80
2018-06-17T20:17:06.024Z,17.80
2018-06-17T20:21:10.365Z,17.60
2018-06-17T20:25:16.484Z,17.50
2018-06-17T20:29:20.799Z,17.30
2018-06-17T20:33:30.085Z,17.10
2018-06-17T20:37:39.356Z,17.00
2018-06-17T20:41:48.927Z,16.70
2018-06-17T20:45:53.114Z,16.50
2018-06-17T20:49:57.515Z,16.40
2018-06-17T20:54:01.704Z,16.20
2018-06-17T21:06:13.524Z,15.90
2018-06-17T21:10:17.724Z,15.70
2018-06-17T21:14:25.803Z,15.60
2018-06-17T21:18:35.283Z,15.60
2018-06-17T21:22:44.736Z,15.50
2018-06-17T21:26:54.127Z,15.40
2018-06-17T21:30:58.365Z,15.30
2018-06-17T21:35:02.931Z,15.40
2018-06-17T21:39:09.258Z,15.20
2018-06-17T21:43:13.858Z,15.10
2018-06-17T21:47:18.125Z,15.00
2018-06-17T21:51:22.500Z,14.90
2018-06-17T21:55:26.952Z,14.90
2018-06-17T22:03:35.191Z,14.80
2018-06-17T22:07:44.428Z,14.70
2018-06-17T22:11:53.807Z,14.50
2018-06-17T22:16:03.185Z,14.40
2018-06-17T22:20:07.609Z,14.50
2018-06-17T22:24:11.810Z,14.40
2018-06-17T22:28:16.233Z,14.30
2018-06-17T22:36:24.357Z,14.30
2018-06-17T22:40:28.536Z,14.20
2018-06-17T22:44:33.099Z,14.30
2018-06-17T22:48:37.299Z,14.20
2018-06-17T22:52:52.537Z,14.30
2018-06-17T22:57:02.077Z,14.40
2018-06-17T23:01:11.569Z,14.30
2018-06-17T23:05:20.765Z,14.30
2018-06-17T23:09:30.357Z,14.20
2018-06-17T23:13:34.593Z,14.20
2018-06-17T23:17:38.896Z,14.20
2018-06-17T23:21:43.108Z,14.40
2018-06-17T23:25:47.481Z,14.50
2018-06-17T23:29:51.697Z,14.60
2018-06-17T23:37:59.788Z,14.60
2018-06-17T23:42:04.056Z,14.80
2018-06-17T23:46:13.236Z,15.00
2018-06-17T23:50:22.590Z,15.60
2018-06-17T23:54:31.988Z,15.70
2018-06-17T23:58:36.649Z,15.80
